createdAt,value
2018-03-25T00:01:08.000Z,57.50
2018-03-25T00:03:36.119Z,57.50
2018-03-25T00:06:04.338Z,56.80
2018-03-25T00:08:32.460Z,58.00
2018-03-25T00:11:00.576Z,57.10
2018-03-25T00:13:29.447Z,56.90
2018-03-25T00:15:57.571Z,56.90
2018-03-25T00:18:25.684Z,56.70
2018-03-25T00:20:53.888Z,56.50
2018-03-25T00:23:22.016Z,56.90
2018-03-25T00:25:50.133Z,57.50
2018-03-25T00:28:18.240Z,57.60
2018-03-25T00:30:46.374Z,56.90
2018-03-25T00:33:15.285Z,57.60
2018-03-25T00:35:44.139Z,57.80
2018-03-25T00:38:13.036Z,56.90
2018-03-25T00:40:41.931Z,57.00
2018-03-25T00:43:10.823Z,57.10
2018-03-25T00:45:39.695Z,56.70
2018-03-25T00:48:07.917Z,56.80
2018-03-25T00:50:36.030Z,57.10
2018-03-25T00:53:04.157Z,57.00
2018-03-25T00:55:32.267Z,56.90
2018-03-25T00:58:00.375Z,56.80
2018-03-25T01:00:29.275Z,56.70
2018-03-25T01:02:57.391Z,56.70
2018-03-25T01:05:25.515Z,57.10
2018-03-25T01:07:54.447Z,56.70
2018-03-25T01:10:22.552Z,56.70
2018-03-25T01:12:52.191Z,56.70
2018-03-25T01:15:20.295Z,56.60
2018-03-25T01:17:48.404Z,56.50
2018-03-25T01:20:16.559Z,56.50
2018-03-25T01:22:44.785Z,56.50
2018-03-25T01:25:12.883Z,56.40
2018-03-25T01:27:40.989Z,56.50
2018-03-25T01:30:09.131Z,56.40
2018-03-25T01:32:37.363Z,56.40
2018-03-25T01:35:05.439Z,56.40
2018-03-25T01:37:34.315Z,56.40
2018-03-25T01:40:03.203Z,56.40
2018-03-25T01:42:32.091Z,56.60
2018-03-25T01:45:01.000Z,56.50
2018-03-25T01:47:29.171Z,56.40
2018-03-25T01:49:58.070Z,56.60
2018-03-25T01:52:26.209Z,56.50
2018-03-25T01:54:54.333Z,57.00
2018-03-25T01:57:22.438Z,57.80
2018-03-25T01:59:50.601Z,57.90
2018-03-25T02:02:18.715Z,57.50
2018-03-25T02:04:47.585Z,57.20
2018-03-25T02:07:16.464Z,57.10
2018-03-25T02:09:44.621Z,57.20
2018-03-25T02:12:12.748Z,57.20
2018-03-25T02:14:41.625Z,57.30
2018-03-25T02:17:10.500Z,56.80
2018-03-25T02:19:38.639Z,56.80
2018-03-25T02:22:06.765Z,57.10
2018-03-25T02:24:35.657Z,57.20
2018-03-25T02:27:03.753Z,57.20
2018-03-25T02:29:31.872Z,57.00
2018-03-25T02:32:00.008Z,56.70
2018-03-25T02:34:28.126Z,56.80
2018-03-25T02:36:56.235Z,57.00
2018-03-25T02:39:24.359Z,57.00
2018-03-25T02:41:52.471Z,56.70
2018-03-25T02:44:20.615Z,56.80
2018-03-25T02:46:48.739Z,56.70
2018-03-25T02:49:16.880Z,56.60
2018-03-25T02:51:45.798Z,56.70
2018-03-25T02:54:13.971Z,56.70
2018-03-25T02:56:42.123Z,56.60
2018-03-25T02:59:10.236Z,56.60
2018-03-25T03:01:38.359Z,56.70
2018-03-25T03:04:07.280Z,56.70
2018-03-25T03:06:35.388Z,56.70
2018-03-25T03:09:03.488Z,56.70
2018-03-25T03:11:32.388Z,57.00
2018-03-25T03:14:01.278Z,56.80
2018-03-25T03:16:30.156Z,56.70
2018-03-25T03:18:59.026Z,56.80
2018-03-25T03:21:27.158Z,56.80
2018-03-25T03:23:55.306Z,56.60
2018-03-25T03:26:23.484Z,56.50
2018-03-25T03:28:51.615Z,56.70
2018-03-25T03:31:19.745Z,56.90
2018-03-25T03:33:47.864Z,56.80
2018-03-25T03:36:15.972Z,56.80
2018-03-25T03:38:44.124Z,56.80
2018-03-25T03:41:13.000Z,56.60
2018-03-25T03:43:41.208Z,57.20
2018-03-25T03:46:09.316Z,56.50
2018-03-25T03:48:37.438Z,56.60
2018-03-25T03:51:06.349Z,56.70
2018-03-25T03:53:35.219Z,56.50
2018-03-25T03:56:04.104Z,56.30
2018-03-25T03:58:32.980Z,56.20
2018-03-25T04:01:01.102Z,56.20
2018-03-25T04:03:29.220Z,56.50
2018-03-25T04:05:57.336Z,56.50
2018-03-25T04:08:25.488Z,56.40
2018-03-25T04:10:54.404Z,56.60
2018-03-25T04:13:22.564Z,56.60
2018-03-25T04:15:50.675Z,56.20
2018-03-25T04:18:18.811Z,56.40
2018-03-25T04:20:46.923Z,56.60
2018-03-25T04:23:15.033Z,57.00
2018-03-25T04:25:43.940Z,56.60
2018-03-25T04:28:12.811Z,56.40
2018-03-25T04:30:41.700Z,56.20
2018-03-25T04:33:10.591Z,56.30
2018-03-25T04:35:39.508Z,56.50
2018-03-25T04:38:07.630Z,56.50
2018-03-25T04:40:35.732Z,56.60
2018-03-25T04:43:04.631Z,56.40
2018-03-25T04:45:33.537Z,56.60
2018-03-25T04:48:01.651Z,56.50
2018-03-25T04:50:29.793Z,56.80
2018-03-25T04:52:57.920Z,56.80
2018-03-25T04:55:26.037Z,56.90
2018-03-25T04:57:54.147Z,57.80
2018-03-25T05:00:22.259Z,56.80
2018-03-25T05:02:50.391Z,56.40
2018-03-25T05:05:18.525Z,56.30
2018-03-25T05:07:46.643Z,56.40
2018-03-25T05:10:14.765Z,56.30
2018-03-25T05:12:42.915Z,56.70
2018-03-25T05:15:11.795Z,56.70
2018-03-25T05:17:40.671Z,56.60
2018-03-25T05:20:08.806Z,56.60
2018-03-25T05:22:36.927Z,56.70
2018-03-25T05:25:05.808Z,56.80
2018-03-25T05:27:33.922Z,56.80
2018-03-25T05:30:02.073Z,56.60
2018-03-25T05:32:30.971Z,56.70
2018-03-25T05:34:59.074Z,56.60
2018-03-25T05:37:27.211Z,56.60
2018-03-25T05:39:56.087Z,57.00
2018-03-25T05:42:25.018Z,56.80
2018-03-25T05:44:53.111Z,56.70
2018-03-25T05:47:21.225Z,56.70
2018-03-25T05:49:50.141Z,56.90
2018-03-25T05:52:18.278Z,56.90
2018-03-25T05:54:47.155Z,56.80
2018-03-25T05:57:15.274Z,56.70
2018-03-25T05:59:43.410Z,57.00
2018-03-25T06:02:11.543Z,57.20
2018-03-25T06:04:39.673Z,57.30
2018-03-25T06:07:08.604Z,57.60
2018-03-25T06:09:36.743Z,57.60
2018-03-25T06:12:04.876Z,57.60
2018-03-25T06:14:32.999Z,57.80
2018-03-25T06:17:01.121Z,57.80
2018-03-25T06:19:29.245Z,57.90
2018-03-25T06:21:57.360Z,57.80
2018-03-25T06:24:25.471Z,58.10
2018-03-25T06:26:53.590Z,58.30
2018-03-25T06:29:21.760Z,58.40
2018-03-25T06:31:49.886Z,58.20
2018-03-25T06:34:18.063Z,59.30
2018-03-25T06:36:46.191Z,59.20
2018-03-25T06:39:14.314Z,59.00
2018-03-25T06:41:42.442Z,59.10
2018-03-25T06:44:10.648Z,59.70
2018-03-25T06:46:39.528Z,59.60
2018-03-25T06:49:08.414Z,61.40
2018-03-25T06:51:37.324Z,61.20
2018-03-25T06:54:05.444Z,61.20
2018-03-25T06:56:33.558Z,61.80
2018-03-25T06:59:02.453Z,61.60
2018-03-25T07:01:31.332Z,61.90
2018-03-25T07:04:00.252Z,61.70
2018-03-25T07:06:28.359Z,61.70
2018-03-25T07:08:56.580Z,61.00
2018-03-25T07:11:25.494Z,62.60
2018-03-25T07:13:53.614Z,62.60
2018-03-25T07:16:21.720Z,63.80
2018-03-25T07:18:50.587Z,63.60
2018-03-25T07:21:19.491Z,62.60
2018-03-25T07:23:48.428Z,62.70
2018-03-25T07:26:16.536Z,62.70
2018-03-25T07:28:44.684Z,63.70
2018-03-25T07:31:12.808Z,63.60
2018-03-25T07:33:40.967Z,62.90
2018-03-25T07:36:09.843Z,64.40
2018-03-25T07:38:37.955Z,64.40
2018-03-25T07:41:06.103Z,63.70
2018-03-25T07:43:35.012Z,64.80
2018-03-25T07:46:03.088Z,64.80
2018-03-25T07:48:31.267Z,64.70
2018-03-25T07:50:59.449Z,64.40
2018-03-25T07:53:27.551Z,64.10
2018-03-25T07:55:55.659Z,64.20
2018-03-25T07:58:24.565Z,64.90
2018-03-25T08:00:52.683Z,64.80
2018-03-25T08:03:20.903Z,64.10
2018-03-25T08:05:49.019Z,63.80
2018-03-25T08:08:17.131Z,63.90
2018-03-25T08:10:46.035Z,64.00
2018-03-25T08:13:14.923Z,63.80
2018-03-25T08:15:43.803Z,64.10
2018-03-25T08:18:12.679Z,64.60
2018-03-25T08:20:40.879Z,64.60
2018-03-25T08:23:09.807Z,64.00
2018-03-25T08:25:37.955Z,63.90
2018-03-25T08:28:06.073Z,64.20
2018-03-25T08:30:34.195Z,63.90
2018-03-25T08:33:02.345Z,64.00
2018-03-25T08:35:31.239Z,64.10
2018-03-25T08:38:00.119Z,64.00
2018-03-25T08:40:29.033Z,64.00
2018-03-25T08:42:57.187Z,64.00
2018-03-25T08:45:25.355Z,64.10
2018-03-25T08:47:53.453Z,64.20
2018-03-25T08:50:21.561Z,64.10
2018-03-25T08:52:49.785Z,64.20
2018-03-25T08:55:18.656Z,63.60
2018-03-25T08:57:48.272Z,63.60
2018-03-25T09:00:16.399Z,63.50
2018-03-25T09:02:44.534Z,63.50
2018-03-25T09:05:12.666Z,63.30
2018-03-25T09:07:40.778Z,63.20
2018-03-25T09:10:08.888Z,62.80
2018-03-25T09:12:37.032Z,62.80
2018-03-25T09:15:05.154Z,62.40
2018-03-25T09:17:33.258Z,62.60
2018-03-25T09:20:02.133Z,62.50
2018-03-25T09:22:31.030Z,60.90
2018-03-25T09:24:59.958Z,61.20
2018-03-25T09:27:28.072Z,61.20
2018-03-25T09:29:56.174Z,61.30
2018-03-25T09:32:25.102Z,61.70
2018-03-25T09:34:53.229Z,61.70
2018-03-25T09:37:21.422Z,61.60
2018-03-25T09:39:49.560Z,61.00
2018-03-25T09:42:17.698Z,60.90
2018-03-25T09:44:45.809Z,60.90
2018-03-25T09:47:14.000Z,61.30
2018-03-25T09:49:42.874Z,61.80
2018-03-25T09:52:11.756Z,62.00
2018-03-25T09:54:39.975Z,61.10
2018-03-25T09:57:08.080Z,60.20
2018-03-25T09:59:36.186Z,59.80
2018-03-25T10:02:05.076Z,60.80
2018-03-25T10:04:33.186Z,60.90
2018-03-25T10:07:01.332Z,60.30
2018-03-25T10:09:29.474Z,60.30
2018-03-25T10:11:57.588Z,58.90
2018-03-25T10:14:25.766Z,58.10
2018-03-25T10:16:54.616Z,58.40
2018-03-25T10:19:22.746Z,57.80
2018-03-25T10:21:50.864Z,58.40
2018-03-25T10:24:19.880Z,56.70
2018-03-25T10:26:48.763Z,57.70
2018-03-25T10:29:17.655Z,57.70
2018-03-25T10:31:46.572Z,56.20
2018-03-25T10:34:14.722Z,56.20
2018-03-25T10:36:43.632Z,56.90
2018-03-25T10:39:11.829Z,56.90
2018-03-25T10:41:39.950Z,56.90
2018-03-25T10:44:08.899Z,57.20
2018-03-25T10:46:37.024Z,57.10
2018-03-25T10:49:05.904Z,57.30
2018-03-25T10:51:34.061Z,57.30
2018-03-25T10:54:02.191Z,56.70
2018-03-25T10:56:30.328Z,55.80
2018-03-25T10:58:59.339Z,55.40
2018-03-25T11:01:27.511Z,55.40
2018-03-25T11:03:55.713Z,56.90
2018-03-25T11:06:23.973Z,55.70
2018-03-25T11:08:52.081Z,53.50
2018-03-25T11:11:20.199Z,55.00
2018-03-25T11:13:48.339Z,55.10
2018-03-25T11:16:17.297Z,52.70
2018-03-25T11:18:46.159Z,53.50
2018-03-25T11:21:14.310Z,53.90
2018-03-25T11:23:43.203Z,53.50
2018-03-25T11:26:12.113Z,51.70
2018-03-25T11:28:40.231Z,51.40
2018-03-25T11:31:08.359Z,52.30
2018-03-25T11:33:36.525Z,53.50
2018-03-25T11:36:05.448Z,52.30
2018-03-25T11:38:33.599Z,52.30
2018-03-25T11:41:01.722Z,53.50
2018-03-25T11:43:29.887Z,53.30
2018-03-25T11:45:58.127Z,53.50
2018-03-25T11:48:26.274Z,53.90
2018-03-25T11:50:55.878Z,51.60
2018-03-25T11:53:24.945Z,49.70
2018-03-25T11:55:53.069Z,49.80
2018-03-25T11:58:21.183Z,51.80
2018-03-25T12:00:49.407Z,52.80
2018-03-25T12:03:17.561Z,53.10
2018-03-25T12:05:46.574Z,55.00
2018-03-25T12:08:14.715Z,54.90
2018-03-25T12:10:43.611Z,50.20
2018-03-25T12:13:12.523Z,50.10
2018-03-25T12:15:41.450Z,52.30
2018-03-25T12:18:09.587Z,52.30
2018-03-25T12:20:37.719Z,49.70
2018-03-25T12:23:05.935Z,50.20
2018-03-25T12:25:34.082Z,49.30
2018-03-25T12:28:03.018Z,48.90
2018-03-25T12:30:31.155Z,48.90
2018-03-25T12:32:59.295Z,51.90
2018-03-25T12:35:27.446Z,51.40
2018-03-25T12:37:55.564Z,50.50
2018-03-25T12:40:23.770Z,51.20
2018-03-25T12:42:51.927Z,52.30
2018-03-25T12:45:20.833Z,49.50
2018-03-25T12:47:48.957Z,49.50
2018-03-25T12:50:17.094Z,51.20
2018-03-25T12:52:45.360Z,48.50
2018-03-25T12:55:13.561Z,49.90
2018-03-25T12:57:41.815Z,48.30
2018-03-25T13:00:09.944Z,50.00
2018-03-25T13:02:39.578Z,50.70
2018-03-25T13:05:08.482Z,49.50
2018-03-25T13:07:36.612Z,49.60
2018-03-25T13:10:04.738Z,49.30
2018-03-25T13:12:32.894Z,50.30
2018-03-25T13:15:01.792Z,50.70
2018-03-25T13:17:29.946Z,50.60
2018-03-25T13:19:58.839Z,49.70
2018-03-25T13:22:27.746Z,49.30
2018-03-25T13:24:56.652Z,48.80
2018-03-25T13:27:24.796Z,48.70
2018-03-25T13:29:53.702Z,49.70
2018-03-25T13:32:22.041Z,49.70
2018-03-25T13:34:50.208Z,48.00
2018-03-25T13:37:18.325Z,48.10
2018-03-25T13:39:46.496Z,48.10
2018-03-25T13:42:14.615Z,49.40
2018-03-25T13:44:42.996Z,50.90
2018-03-25T13:47:11.118Z,51.20
2018-03-25T13:49:39.321Z,51.10
2018-03-25T13:52:07.429Z,50.60
2018-03-25T13:54:35.592Z,50.10
2018-03-25T13:57:03.720Z,50.50
2018-03-25T13:59:31.847Z,48.70
2018-03-25T14:01:59.992Z,47.40
2018-03-25T14:04:28.911Z,48.00
2018-03-25T14:06:57.228Z,48.10
2018-03-25T14:09:25.407Z,47.80
2018-03-25T14:11:53.532Z,48.70
2018-03-25T14:14:23.264Z,47.80
2018-03-25T14:16:52.162Z,48.20
2018-03-25T14:19:21.193Z,48.40
2018-03-25T14:21:49.309Z,48.40
2018-03-25T14:24:17.509Z,48.70
2018-03-25T14:26:46.407Z,47.00
2018-03-25T14:29:14.535Z,47.00
2018-03-25T14:31:42.655Z,47.50
2018-03-25T14:34:10.822Z,47.40
2018-03-25T14:36:38.981Z,49.20
2018-03-25T14:39:07.865Z,49.40
2018-03-25T14:41:36.797Z,48.30
2018-03-25T14:44:05.061Z,48.10
2018-03-25T14:46:33.181Z,48.30
2018-03-25T14:49:01.311Z,48.90
2018-03-25T14:51:29.436Z,47.10
2018-03-25T14:53:57.568Z,46.60
2018-03-25T14:56:25.699Z,47.70
2018-03-25T14:58:54.727Z,49.10
2018-03-25T15:01:22.885Z,49.20
2018-03-25T15:03:51.055Z,48.30
2018-03-25T15:06:19.923Z,48.60
2018-03-25T15:08:48.840Z,49.10
2018-03-25T15:11:17.717Z,49.70
2018-03-25T15:13:46.623Z,48.10
2018-03-25T15:16:14.776Z,48.10
2018-03-25T15:18:43.682Z,48.40
2018-03-25T15:21:11.813Z,48.40
2018-03-25T15:23:39.925Z,48.80
2018-03-25T15:26:08.806Z,48.60
2018-03-25T15:28:37.719Z,49.40
2018-03-25T15:31:05.855Z,49.40
2018-03-25T15:33:33.987Z,48.90
2018-03-25T15:36:02.137Z,49.00
2018-03-25T15:38:30.410Z,49.30
2018-03-25T15:40:58.550Z,48.40
2018-03-25T15:43:26.668Z,49.40
2018-03-25T15:45:54.808Z,48.70
2018-03-25T15:48:23.850Z,49.10
2018-03-25T15:50:51.956Z,49.10
2018-03-25T15:53:20.160Z,48.80
2018-03-25T15:55:49.182Z,48.80
2018-03-25T15:58:17.356Z,48.90
2018-03-25T16:00:45.530Z,49.60
2018-03-25T16:03:13.667Z,49.60
2018-03-25T16:05:42.552Z,49.40
2018-03-25T16:08:11.444Z,49.40
2018-03-25T16:10:40.393Z,49.60
2018-03-25T16:13:08.515Z,49.60
2018-03-25T16:15:36.651Z,49.40
2018-03-25T16:18:04.800Z,49.80
2018-03-25T16:20:32.952Z,50.00
2018-03-25T16:23:01.069Z,48.90
2018-03-25T16:25:29.202Z,49.30
2018-03-25T16:27:57.365Z,49.00
2018-03-25T16:30:25.486Z,49.90
2018-03-25T16:32:53.706Z,49.80
2018-03-25T16:35:21.864Z,50.00
2018-03-25T16:37:50.788Z,50.30
2018-03-25T16:40:18.900Z,50.20
2018-03-25T16:42:47.786Z,49.80
2018-03-25T16:45:16.002Z,49.50
2018-03-25T16:47:44.197Z,49.70
2018-03-25T16:50:12.332Z,49.80
2018-03-25T16:52:41.229Z,50.60
2018-03-25T16:55:09.381Z,50.50
2018-03-25T16:57:37.462Z,50.90
2018-03-25T17:00:05.608Z,50.60
2018-03-25T17:02:33.726Z,51.00
2018-03-25T17:05:02.625Z,51.20
2018-03-25T17:07:31.548Z,50.80
2018-03-25T17:09:59.679Z,50.90
2018-03-25T17:12:28.609Z,51.00
2018-03-25T17:14:56.756Z,50.40
2018-03-25T17:17:25.016Z,50.90
2018-03-25T17:19:54.022Z,50.60
2018-03-25T17:22:22.183Z,50.60
2018-03-25T17:24:51.110Z,51.50
2018-03-25T17:27:19.360Z,51.30
2018-03-25T17:29:47.508Z,51.80
2018-03-25T17:32:15.702Z,51.80
2018-03-25T17:34:43.836Z,52.10
2018-03-25T17:37:11.980Z,52.40
2018-03-25T17:39:40.141Z,52.50
2018-03-25T17:42:09.026Z,52.90
2018-03-25T17:44:37.891Z,52.90
2018-03-25T17:47:07.080Z,53.10
2018-03-25T17:49:35.448Z,53.10
2018-03-25T17:52:05.072Z,53.00
2018-03-25T17:54:34.012Z,53.10
2018-03-25T17:57:02.132Z,53.10
2018-03-25T17:59:31.129Z,53.30
2018-03-25T18:02:00.016Z,53.50
2018-03-25T18:04:28.932Z,53.60
2018-03-25T18:06:57.124Z,53.60
2018-03-25T18:09:25.281Z,53.70
2018-03-25T18:11:53.424Z,53.70
2018-03-25T18:14:23.096Z,53.90
2018-03-25T18:16:51.225Z,53.90
2018-03-25T18:19:20.211Z,54.20
2018-03-25T18:21:48.285Z,54.10
2018-03-25T18:24:17.216Z,54.70
2018-03-25T18:26:45.368Z,54.70
2018-03-25T18:29:14.279Z,54.70
2018-03-25T18:31:42.407Z,54.70
2018-03-25T18:34:11.312Z,55.00
2018-03-25T18:36:39.447Z,55.00
2018-03-25T18:39:07.664Z,54.90
2018-03-25T18:41:35.836Z,55.10
2018-03-25T18:44:03.964Z,54.70
2018-03-25T18:46:32.175Z,54.80
2018-03-25T18:49:01.179Z,54.90
2018-03-25T18:51:29.305Z,54.90
2018-03-25T18:53:57.427Z,55.80
2018-03-25T18:56:25.578Z,55.30
2018-03-25T18:58:54.466Z,55.20
2018-03-25T19:01:23.406Z,55.20
2018-03-25T19:03:51.508Z,55.20
2018-03-25T19:06:19.643Z,55.20
2018-03-25T19:08:47.823Z,55.30
2018-03-25T19:11:15.941Z,55.50
2018-03-25T19:13:45.645Z,55.60
2018-03-25T19:16:14.563Z,55.60
2018-03-25T19:18:43.453Z,55.60
2018-03-25T19:21:12.479Z,55.50
2018-03-25T19:23:40.639Z,55.40
2018-03-25T19:26:08.803Z,55.70
2018-03-25T19:28:36.975Z,55.70
2018-03-25T19:31:05.148Z,55.70
2018-03-25T19:33:34.023Z,56.00
2018-03-25T19:36:02.955Z,55.80
2018-03-25T19:38:31.127Z,55.80
2018-03-25T19:40:59.253Z,55.90
2018-03-25T19:43:28.172Z,56.40
2018-03-25T19:45:56.332Z,55.80
2018-03-25T19:48:25.223Z,56.00
2018-03-25T19:50:53.383Z,56.10
2018-03-25T19:53:22.279Z,56.60
2018-03-25T19:55:51.169Z,56.00
2018-03-25T19:58:20.076Z,56.00
2018-03-25T20:00:48.262Z,55.90
2018-03-25T20:03:16.371Z,56.10
2018-03-25T20:05:44.487Z,56.20
2018-03-25T20:08:12.631Z,56.20
2018-03-25T20:10:42.267Z,56.30
2018-03-25T20:13:11.150Z,56.40
2018-03-25T20:15:40.034Z,57.00
2018-03-25T20:18:08.956Z,56.80
2018-03-25T20:20:37.112Z,56.80
2018-03-25T20:23:05.995Z,56.50
2018-03-25T20:25:34.890Z,56.60
2018-03-25T20:28:03.944Z,57.00
2018-03-25T20:30:32.075Z,57.00
2018-03-25T20:33:00.190Z,57.00
2018-03-25T20:35:28.412Z,57.50
2018-03-25T20:37:56.585Z,57.10
2018-03-25T20:40:24.725Z,57.40
2018-03-25T20:42:52.930Z,57.60
2018-03-25T20:45:21.110Z,58.10
2018-03-25T20:47:49.245Z,57.90
2018-03-25T20:50:18.993Z,57.50
2018-03-25T20:52:47.184Z,57.50
2018-03-25T20:55:15.283Z,57.30
2018-03-25T20:57:43.392Z,57.80
2018-03-25T21:00:12.296Z,57.50
2018-03-25T21:02:40.479Z,57.50
2018-03-25T21:05:08.548Z,58.30
2018-03-25T21:07:36.667Z,57.80
2018-03-25T21:10:04.794Z,58.50
2018-03-25T21:12:32.950Z,57.70
2018-03-25T21:15:01.836Z,58.50
2018-03-25T21:17:30.715Z,58.10
2018-03-25T21:19:59.620Z,58.30
2018-03-25T21:22:28.508Z,58.00
2018-03-25T21:24:57.392Z,58.00
2018-03-25T21:27:25.524Z,57.90
2018-03-25T21:29:53.644Z,58.40
2018-03-25T21:32:22.655Z,58.40
2018-03-25T21:34:50.836Z,58.40
2018-03-25T21:37:18.957Z,58.60
2018-03-25T21:39:47.098Z,58.70
2018-03-25T21:42:15.363Z,58.20
2018-03-25T21:44:43.537Z,58.60
2018-03-25T21:47:11.696Z,58.50
2018-03-25T21:49:39.832Z,58.10
2018-03-25T21:52:08.767Z,58.60
2018-03-25T21:54:36.891Z,58.60
2018-03-25T21:57:05.109Z,59.20
2018-03-25T21:59:33.235Z,59.00
2018-03-25T22:02:01.462Z,59.10
2018-03-25T22:04:30.011Z,58.80
2018-03-25T22:06:58.233Z,58.70
2018-03-25T22:09:26.362Z,58.50
2018-03-25T22:11:55.255Z,58.70
2018-03-25T22:14:24.160Z,58.40
2018-03-25T22:16:53.053Z,58.60
2018-03-25T22:19:21.203Z,58.60
2018-03-25T22:21:50.110Z,59.00
2018-03-25T22:24:19.019Z,59.30
2018-03-25T22:26:47.187Z,59.30
2018-03-25T22:29:15.317Z,59.00
2018-03-25T22:31:43.526Z,58.90
2018-03-25T22:34:11.648Z,58.70
2018-03-25T22:36:39.884Z,58.80
2018-03-25T22:39:08.017Z,58.70
2018-03-25T22:41:36.139Z,58.90
2018-03-25T22:44:04.264Z,58.50
2018-03-25T22:46:33.168Z,58.70
2018-03-25T22:49:02.077Z,58.50
2018-03-25T22:51:30.229Z,58.50
2018-03-25T22:53:59.137Z,58.40
2018-03-25T22:56:27.309Z,58.40
2018-03-25T22:58:55.446Z,58.40
2018-03-25T23:01:24.376Z,59.00
2018-03-25T23:03:52.540Z,59.00
2018-03-25T23:06:21.420Z,58.50
2018-03-25T23:08:50.349Z,58.60
2018-03-25T23:11:18.484Z,58.50
2018-03-25T23:13:47.418Z,58.70
2018-03-25T23:16:15.544Z,58.60
2018-03-25T23:18:43.664Z,58.70
2018-03-25T23:21:11.812Z,59.00
2018-03-25T23:23:40.734Z,59.10
2018-03-25T23:26:08.851Z,59.30
2018-03-25T23:28:37.820Z,59.40
2018-03-25T23:31:06.033Z,59.50
2018-03-25T23:33:34.944Z,59.50
2018-03-25T23:36:03.050Z,59.50
2018-03-25T23:38:31.168Z,59.70
2018-03-25T23:41:00.068Z,59.90
2018-03-25T23:43:28.212Z,59.90
2018-03-25T23:45:56.308Z,61.40
2018-03-25T23:48:24.416Z,60.10
2018-03-25T23:50:52.637Z,59.70
2018-03-25T23:53:22.364Z,59.90
2018-03-25T23:55:51.246Z,59.80
2018-03-25T23:58:20.118Z,59.90
